sensor_id;sensor_type;location;lat;lon;timestamp;P1;durP1;ratioP1;P2;durP2;ratioP2
6185;SDS011;3126;52.738;8.316;2023-12-28T00:01:06;4.93;;;2.20;;
6185;SDS011;3126;52.738;8.316;2023-12-28T00:06:07;3.97;;;2.33;;
6185;SDS011;3126;52.738;8.316;2023-12-28T00:11:10;3.30;;;1.90;;
6185;SDS011;3126;52.738;8.316;2023-12-28T00:16:11;2.78;;;2.30;;
6185;SDS011;3126;52.738;8.316;2023-12-28T00:21:12;4.28;;;2.60;;
6185;SDS011;3126;52.738;8.316;2023-12-28T00:26:13;3.22;;;2.05;;
6185;SDS011;3126;52.738;8.316;2023-12-28T00:31:14;3.40;;;2.03;;
6185;SDS011;3126;52.738;8.316;2023-12-28T00:36:15;3.95;;;2.22;;
6185;SDS011;3126;52.738;8.316;2023-12-28T00:41:16;2.42;;;2.08;;
6185;SDS011;3126;52.738;8.316;2023-12-28T00:46:17;2.55;;;2.10;;
6185;SDS011;3126;52.738;8.316;2023-12-28T00:51:19;2.33;;;2.10;;
6185;SDS011;3126;52.738;8.316;2023-12-28T00:56:20;3.13;;;2.45;;
6185;SDS011;3126;52.738;8.316;2023-12-28T01:01:21;2.40;;;2.15;;
6185;SDS011;3126;52.738;8.316;2023-12-28T01:06:22;2.83;;;2.10;;
6185;SDS011;3126;52.738;8.316;2023-12-28T01:11:27;2.55;;;2.10;;
6185;SDS011;3126;52.738;8.316;2023-12-28T01:16:28;4.65;;;2.38;;
6185;SDS011;3126;52.738;8.316;2023-12-28T01:21:29;3.08;;;2.25;;
6185;SDS011;3126;52.738;8.316;2023-12-28T01:26:30;5.80;;;2.90;;
6185;SDS011;3126;52.738;8.316;2023-12-28T01:31:31;3.55;;;2.50;;
6185;SDS011;3126;52.738;8.316;2023-12-28T01:36:32;4.82;;;2.33;;
6185;SDS011;3126;52.738;8.316;2023-12-28T01:41:33;4.18;;;2.55;;
6185;SDS011;3126;52.738;8.316;2023-12-28T01:46:34;4.85;;;2.83;;
6185;SDS011;3126;52.738;8.316;2023-12-28T01:51:35;5.05;;;2.63;;
6185;SDS011;3126;52.738;8.316;2023-12-28T01:56:37;3.35;;;2.25;;
6185;SDS011;3126;52.738;8.316;2023-12-28T02:01:38;4.28;;;2.90;;
6185;SDS011;3126;52.738;8.316;2023-12-28T02:06:39;5.20;;;2.72;;
6185;SDS011;3126;52.738;8.316;2023-12-28T02:11:40;4.70;;;2.83;;
6185;SDS011;3126;52.738;8.316;2023-12-28T02:16:44;2.13;;;1.92;;
6185;SDS011;3126;52.738;8.316;2023-12-28T02:26:46;6.75;;;2.67;;
6185;SDS011;3126;52.738;8.316;2023-12-28T02:31:50;6.28;;;2.78;;
6185;SDS011;3126;52.738;8.316;2023-12-28T02:36:54;4.22;;;2.30;;
6185;SDS011;3126;52.738;8.316;2023-12-28T02:41:57;3.53;;;2.30;;
6185;SDS011;3126;52.738;8.316;2023-12-28T02:46:58;2.97;;;2.67;;
6185;SDS011;3126;52.738;8.316;2023-12-28T02:51:59;5.28;;;3.25;;
6185;SDS011;3126;52.738;8.316;2023-12-28T02:57:00;3.15;;;2.33;;
6185;SDS011;3126;52.738;8.316;2023-12-28T03:02:01;3.00;;;2.67;;
6185;SDS011;3126;52.738;8.316;2023-12-28T03:07:02;4.20;;;2.97;;
6185;SDS011;3126;52.738;8.316;2023-12-28T03:12:04;6.03;;;3.53;;
6185;SDS011;3126;52.738;8.316;2023-12-28T03:17:05;3.75;;;2.58;;
6185;SDS011;3126;52.738;8.316;2023-12-28T03:22:06;3.38;;;2.20;;
6185;SDS011;3126;52.738;8.316;2023-12-28T03:27:07;3.58;;;2.42;;
6185;SDS011;3126;52.738;8.316;2023-12-28T03:32:08;3.25;;;2.17;;
6185;SDS011;3126;52.738;8.316;2023-12-28T03:37:09;3.13;;;2.55;;
6185;SDS011;3126;52.738;8.316;2023-12-28T03:42:11;3.95;;;2.47;;
6185;SDS011;3126;52.738;8.316;2023-12-28T03:47:12;3.75;;;3.10;;
6185;SDS011;3126;52.738;8.316;2023-12-28T03:52:13;4.80;;;2.85;;
6185;SDS011;3126;52.738;8.316;2023-12-28T03:57:14;4.28;;;3.00;;
6185;SDS011;3126;52.738;8.316;2023-12-28T04:02:17;6.72;;;2.90;;
6185;SDS011;3126;52.738;8.316;2023-12-28T04:07:18;4.40;;;2.78;;
6185;SDS011;3126;52.738;8.316;2023-12-28T04:12:19;5.88;;;2.88;;
6185;SDS011;3126;52.738;8.316;2023-12-28T04:17:20;3.90;;;2.47;;
6185;SDS011;3126;52.738;8.316;2023-12-28T04:22:21;4.95;;;3.00;;
6185;SDS011;3126;52.738;8.316;2023-12-28T04:27:22;4.57;;;2.83;;
6185;SDS011;3126;52.738;8.316;2023-12-28T04:32:23;3.80;;;2.75;;
6185;SDS011;3126;52.738;8.316;2023-12-28T04:37:24;3.85;;;2.63;;
6185;SDS011;3126;52.738;8.316;2023-12-28T04:42:28;4.28;;;2.28;;
6185;SDS011;3126;52.738;8.316;2023-12-28T04:47:29;2.78;;;2.45;;
6185;SDS011;3126;52.738;8.316;2023-12-28T04:52:30;3.30;;;2.47;;
6185;SDS011;3126;52.738;8.316;2023-12-28T04:57:32;4.45;;;2.53;;
6185;SDS011;3126;52.738;8.316;2023-12-28T05:02:33;6.20;;;3.03;;
6185;SDS011;3126;52.738;8.316;2023-12-28T05:07:34;5.82;;;3.13;;
6185;SDS011;3126;52.738;8.316;2023-12-28T05:12:34;4.68;;;2.60;;
6185;SDS011;3126;52.738;8.316;2023-12-28T05:17:35;6.10;;;2.97;;
6185;SDS011;3126;52.738;8.316;2023-12-28T05:22:36;5.00;;;2.80;;
6185;SDS011;3126;52.738;8.316;2023-12-28T05:27:37;4.50;;;3.33;;
6185;SDS011;3126;52.738;8.316;2023-12-28T05:32:38;5.05;;;2.53;;
6185;SDS011;3126;52.738;8.316;2023-12-28T05:37:39;5.70;;;2.40;;
6185;SDS011;3126;52.738;8.316;2023-12-28T05:42:40;4.35;;;2.30;;
6185;SDS011;3126;52.738;8.316;2023-12-28T05:47:41;4.28;;;2.40;;
6185;SDS011;3126;52.738;8.316;2023-12-28T05:52:42;2.97;;;2.03;;
6185;SDS011;3126;52.738;8.316;2023-12-28T05:57:43;8.50;;;2.60;;
6185;SDS011;3126;52.738;8.316;2023-12-28T06:02:44;4.88;;;2.47;;
6185;SDS011;3126;52.738;8.316;2023-12-28T06:07:46;6.57;;;2.45;;
6185;SDS011;3126;52.738;8.316;2023-12-28T06:12:47;5.03;;;2.78;;
6185;SDS011;3126;52.738;8.316;2023-12-28T06:17:48;2.33;;;2.10;;
6185;SDS011;3126;52.738;8.316;2023-12-28T06:22:49;3.95;;;2.30;;
6185;SDS011;3126;52.738;8.316;2023-12-28T06:27:50;6.03;;;1.95;;
6185;SDS011;3126;52.738;8.316;2023-12-28T06:32:51;4.18;;;2.10;;
6185;SDS011;3126;52.738;8.316;2023-12-28T06:37:52;3.85;;;2.33;;
6185;SDS011;3126;52.738;8.316;2023-12-28T06:42:53;7.20;;;2.15;;
6185;SDS011;3126;52.738;8.316;2023-12-28T06:47:54;4.70;;;2.10;;
6185;SDS011;3126;52.738;8.316;2023-12-28T06:52:55;7.60;;;2.05;;
6185;SDS011;3126;52.738;8.316;2023-12-28T06:57:57;7.63;;;2.40;;
6185;SDS011;3126;52.738;8.316;2023-12-28T07:02:58;3.83;;;1.77;;
6185;SDS011;3126;52.738;8.316;2023-12-28T07:07:59;6.25;;;2.08;;
6185;SDS011;3126;52.738;8.316;2023-12-28T07:13:00;5.35;;;2.00;;
6185;SDS011;3126;52.738;8.316;2023-12-28T07:18:01;6.90;;;2.38;;
6185;SDS011;3126;52.738;8.316;2023-12-28T07:23:02;5.40;;;2.20;;
6185;SDS011;3126;52.738;8.316;2023-12-28T07:28:03;4.70;;;1.98;;
6185;SDS011;3126;52.738;8.316;2023-12-28T07:33:04;4.68;;;1.65;;
6185;SDS011;3126;52.738;8.316;2023-12-28T07:38:05;3.92;;;1.77;;
6185;SDS011;3126;52.738;8.316;2023-12-28T07:43:06;7.43;;;2.20;;
6185;SDS011;3126;52.738;8.316;2023-12-28T07:48:07;5.05;;;1.65;;
6185;SDS011;3126;52.738;8.316;2023-12-28T07:53:08;6.78;;;1.63;;
6185;SDS011;3126;52.738;8.316;2023-12-28T07:58:09;6.38;;;1.40;;
6185;SDS011;3126;52.738;8.316;2023-12-28T08:03:10;7.45;;;2.13;;
6185;SDS011;3126;52.738;8.316;2023-12-28T08:08:12;9.82;;;2.05;;
6185;SDS011;3126;52.738;8.316;2023-12-28T08:13:13;3.83;;;2.00;;
6185;SDS011;3126;52.738;8.316;2023-12-28T08:18:14;4.30;;;1.63;;
6185;SDS011;3126;52.738;8.316;2023-12-28T08:23:15;5.85;;;1.80;;
6185;SDS011;3126;52.738;8.316;2023-12-28T08:28:16;7.03;;;2.30;;
6185;SDS011;3126;52.738;8.316;2023-12-28T08:33:17;5.05;;;1.90;;
6185;SDS011;3126;52.738;8.316;2023-12-28T08:38:18;9.38;;;2.85;;
6185;SDS011;3126;52.738;8.316;2023-12-28T08:43:19;6.70;;;2.13;;
6185;SDS011;3126;52.738;8.316;2023-12-28T08:48:20;4.97;;;2.08;;
6185;SDS011;3126;52.738;8.316;2023-12-28T08:53:21;7.50;;;2.50;;
6185;SDS011;3126;52.738;8.316;2023-12-28T08:58:22;5.45;;;2.15;;
6185;SDS011;3126;52.738;8.316;2023-12-28T09:03:23;6.53;;;2.63;;
6185;SDS011;3126;52.738;8.316;2023-12-28T09:08:24;5.72;;;1.70;;
6185;SDS011;3126;52.738;8.316;2023-12-28T09:13:25;5.93;;;1.90;;
6185;SDS011;3126;52.738;8.316;2023-12-28T09:18:26;8.70;;;2.13;;
6185;SDS011;3126;52.738;8.316;2023-12-28T09:23:26;6.38;;;1.67;;
6185;SDS011;3126;52.738;8.316;2023-12-28T09:28:28;6.43;;;2.10;;
6185;SDS011;3126;52.738;8.316;2023-12-28T09:33:28;7.85;;;2.45;;
6185;SDS011;3126;52.738;8.316;2023-12-28T09:38:29;6.28;;;2.30;;
6185;SDS011;3126;52.738;8.316;2023-12-28T09:43:31;13.18;;;2.38;;
6185;SDS011;3126;52.738;8.316;2023-12-28T09:48:37;10.82;;;2.47;;
6185;SDS011;3126;52.738;8.316;2023-12-28T09:53:41;9.43;;;2.53;;
6185;SDS011;3126;52.738;8.316;2023-12-28T09:58:44;11.13;;;1.92;;
6185;SDS011;3126;52.738;8.316;2023-12-28T10:03:48;14.43;;;4.45;;
6185;SDS011;3126;52.738;8.316;2023-12-28T10:08:50;8.05;;;2.00;;
6185;SDS011;3126;52.738;8.316;2023-12-28T10:13:52;9.73;;;2.45;;
6185;SDS011;3126;52.738;8.316;2023-12-28T10:18:55;8.55;;;2.13;;
6185;SDS011;3126;52.738;8.316;2023-12-28T10:23:56;12.25;;;2.22;;
6185;SDS011;3126;52.738;8.316;2023-12-28T10:29:00;8.85;;;2.00;;
6185;SDS011;3126;52.738;8.316;2023-12-28T10:34:03;9.95;;;2.25;;
6185;SDS011;3126;52.738;8.316;2023-12-28T10:39:04;4.55;;;1.63;;
6185;SDS011;3126;52.738;8.316;2023-12-28T10:44:06;10.75;;;2.55;;
6185;SDS011;3126;52.738;8.316;2023-12-28T10:49:11;7.10;;;1.80;;
6185;SDS011;3126;52.738;8.316;2023-12-28T10:54:20;6.10;;;1.70;;
6185;SDS011;3126;52.738;8.316;2023-12-28T10:59:31;12.57;;;3.30;;
6185;SDS011;3126;52.738;8.316;2023-12-28T11:04:48;7.90;;;2.20;;
6185;SDS011;3126;52.738;8.316;2023-12-28T11:09:50;8.85;;;2.25;;
6185;SDS011;3126;52.738;8.316;2023-12-28T11:14:52;8.13;;;2.60;;
6185;SDS011;3126;52.738;8.316;2023-12-28T11:19:53;9.80;;;2.15;;
6185;SDS011;3126;52.738;8.316;2023-12-28T11:24:56;8.15;;;2.20;;
6185;SDS011;3126;52.738;8.316;2023-12-28T11:29:57;13.88;;;2.35;;
6185;SDS011;3126;52.738;8.316;2023-12-28T11:34:58;14.40;;;2.90;;
6185;SDS011;3126;52.738;8.316;2023-12-28T11:39:59;6.43;;;2.65;;
6185;SDS011;3126;52.738;8.316;2023-12-28T11:45:10;8.88;;;2.50;;
6185;SDS011;3126;52.738;8.316;2023-12-28T11:50:11;8.98;;;2.55;;
6185;SDS011;3126;52.738;8.316;2023-12-28T11:55:20;10.45;;;2.10;;
6185;SDS011;3126;52.738;8.316;2023-12-28T12:00:22;4.85;;;1.92;;
6185;SDS011;3126;52.738;8.316;2023-12-28T12:05:25;7.25;;;1.88;;
6185;SDS011;3126;52.738;8.316;2023-12-28T12:10:26;12.18;;;2.45;;
6185;SDS011;3126;52.738;8.316;2023-12-28T12:15:27;9.77;;;2.75;;
6185;SDS011;3126;52.738;8.316;2023-12-28T12:20:29;11.02;;;2.75;;
6185;SDS011;3126;52.738;8.316;2023-12-28T12:25:30;7.70;;;2.15;;
6185;SDS011;3126;52.738;8.316;2023-12-28T12:30:31;8.00;;;2.47;;
6185;SDS011;3126;52.738;8.316;2023-12-28T12:35:32;12.93;;;2.28;;
6185;SDS011;3126;52.738;8.316;2023-12-28T12:40:34;7.45;;;2.70;;
6185;SDS011;3126;52.738;8.316;2023-12-28T12:45:35;9.98;;;2.70;;
6185;SDS011;3126;52.738;8.316;2023-12-28T12:50:36;9.27;;;2.40;;
6185;SDS011;3126;52.738;8.316;2023-12-28T12:55:37;10.75;;;2.47;;
6185;SDS011;3126;52.738;8.316;2023-12-28T13:00:46;9.73;;;2.78;;
6185;SDS011;3126;52.738;8.316;2023-12-28T13:05:47;8.82;;;2.35;;
6185;SDS011;3126;52.738;8.316;2023-12-28T13:10:48;10.32;;;2.20;;
6185;SDS011;3126;52.738;8.316;2023-12-28T13:15:52;10.57;;;2.00;;
6185;SDS011;3126;52.738;8.316;2023-12-28T13:20:53;10.77;;;3.17;;
6185;SDS011;3126;52.738;8.316;2023-12-28T13:25:54;9.25;;;2.17;;
6185;SDS011;3126;52.738;8.316;2023-12-28T13:30:55;8.95;;;2.40;;
6185;SDS011;3126;52.738;8.316;2023-12-28T13:35:57;7.22;;;2.00;;
6185;SDS011;3126;52.738;8.316;2023-12-28T13:40:58;11.60;;;1.80;;
6185;SDS011;3126;52.738;8.316;2023-12-28T13:45:59;9.23;;;1.92;;
6185;SDS011;3126;52.738;8.316;2023-12-28T13:50:59;9.55;;;2.13;;
6185;SDS011;3126;52.738;8.316;2023-12-28T13:56:01;14.45;;;2.75;;
6185;SDS011;3126;52.738;8.316;2023-12-28T14:01:03;11.25;;;2.17;;
6185;SDS011;3126;52.738;8.316;2023-12-28T14:06:04;11.38;;;2.45;;
6185;SDS011;3126;52.738;8.316;2023-12-28T14:11:05;11.27;;;2.55;;
6185;SDS011;3126;52.738;8.316;2023-12-28T14:16:06;11.18;;;2.67;;
6185;SDS011;3126;52.738;8.316;2023-12-28T14:21:08;10.38;;;3.08;;
6185;SDS011;3126;52.738;8.316;2023-12-28T14:26:13;7.57;;;1.52;;
6185;SDS011;3126;52.738;8.316;2023-12-28T14:31:14;13.52;;;3.60;;
6185;SDS011;3126;52.738;8.316;2023-12-28T14:41:35;12.38;;;2.80;;
6185;SDS011;3126;52.738;8.316;2023-12-28T14:46:37;9.55;;;2.80;;
6185;SDS011;3126;52.738;8.316;2023-12-28T14:51:38;10.60;;;2.00;;
6185;SDS011;3126;52.738;8.316;2023-12-28T14:56:39;14.13;;;3.30;;
6185;SDS011;3126;52.738;8.316;2023-12-28T15:01:40;11.38;;;2.25;;
6185;SDS011;3126;52.738;8.316;2023-12-28T15:06:41;10.38;;;2.97;;
6185;SDS011;3126;52.738;8.316;2023-12-28T15:11:42;7.63;;;2.00;;
6185;SDS011;3126;52.738;8.316;2023-12-28T15:16:43;8.93;;;2.30;;
6185;SDS011;3126;52.738;8.316;2023-12-28T15:21:44;14.07;;;2.30;;
6185;SDS011;3126;52.738;8.316;2023-12-28T15:26:45;12.18;;;2.22;;
6185;SDS011;3126;52.738;8.316;2023-12-28T15:31:46;17.25;;;2.80;;
6185;SDS011;3126;52.738;8.316;2023-12-28T15:36:47;7.95;;;2.15;;
6185;SDS011;3126;52.738;8.316;2023-12-28T15:41:48;7.90;;;2.10;;
6185;SDS011;3126;52.738;8.316;2023-12-28T15:46:49;11.88;;;2.50;;
6185;SDS011;3126;52.738;8.316;2023-12-28T15:51:50;8.90;;;2.33;;
6185;SDS011;3126;52.738;8.316;2023-12-28T15:56:51;12.05;;;2.78;;
6185;SDS011;3126;52.738;8.316;2023-12-28T16:01:52;10.25;;;2.65;;
6185;SDS011;3126;52.738;8.316;2023-12-28T16:06:53;10.63;;;2.10;;
6185;SDS011;3126;52.738;8.316;2023-12-28T16:11:55;9.73;;;1.92;;
6185;SDS011;3126;52.738;8.316;2023-12-28T16:16:56;11.93;;;2.75;;
6185;SDS011;3126;52.738;8.316;2023-12-28T16:21:57;7.93;;;1.85;;
6185;SDS011;3126;52.738;8.316;2023-12-28T16:26:58;12.52;;;2.45;;
6185;SDS011;3126;52.738;8.316;2023-12-28T16:31:59;12.15;;;2.67;;
6185;SDS011;3126;52.738;8.316;2023-12-28T16:37:01;13.55;;;2.70;;
6185;SDS011;3126;52.738;8.316;2023-12-28T16:42:02;7.43;;;2.30;;
6185;SDS011;3126;52.738;8.316;2023-12-28T16:47:04;8.15;;;2.17;;
6185;SDS011;3126;52.738;8.316;2023-12-28T16:52:05;8.32;;;2.67;;
6185;SDS011;3126;52.738;8.316;2023-12-28T16:57:06;10.55;;;2.72;;
6185;SDS011;3126;52.738;8.316;2023-12-28T17:02:07;10.30;;;2.38;;
6185;SDS011;3126;52.738;8.316;2023-12-28T17:07:08;9.73;;;2.80;;
6185;SDS011;3126;52.738;8.316;2023-12-28T17:12:12;11.10;;;2.63;;
6185;SDS011;3126;52.738;8.316;2023-12-28T17:17:13;6.60;;;2.33;;
6185;SDS011;3126;52.738;8.316;2023-12-28T17:22:15;8.82;;;2.42;;
6185;SDS011;3126;52.738;8.316;2023-12-28T17:27:17;10.15;;;2.70;;
6185;SDS011;3126;52.738;8.316;2023-12-28T17:32:20;11.05;;;3.85;;
6185;SDS011;3126;52.738;8.316;2023-12-28T17:37:21;10.55;;;3.00;;
6185;SDS011;3126;52.738;8.316;2023-12-28T17:42:23;8.25;;;2.67;;
6185;SDS011;3126;52.738;8.316;2023-12-28T17:47:36;5.85;;;2.50;;
6185;SDS011;3126;52.738;8.316;2023-12-28T17:52:38;7.65;;;2.70;;
6185;SDS011;3126;52.738;8.316;2023-12-28T17:57:39;11.98;;;3.08;;
6185;SDS011;3126;52.738;8.316;2023-12-28T18:02:40;10.68;;;2.72;;
6185;SDS011;3126;52.738;8.316;2023-12-28T18:07:41;6.13;;;2.13;;
6185;SDS011;3126;52.738;8.316;2023-12-28T18:12:42;7.50;;;1.80;;
6185;SDS011;3126;52.738;8.316;2023-12-28T18:17:43;8.13;;;1.83;;
6185;SDS011;3126;52.738;8.316;2023-12-28T18:22:44;9.95;;;2.50;;
6185;SDS011;3126;52.738;8.316;2023-12-28T18:27:45;13.30;;;3.25;;
6185;SDS011;3126;52.738;8.316;2023-12-28T18:32:46;10.95;;;3.05;;
6185;SDS011;3126;52.738;8.316;2023-12-28T18:37:47;7.95;;;3.08;;
6185;SDS011;3126;52.738;8.316;2023-12-28T18:42:48;9.40;;;2.97;;
6185;SDS011;3126;52.738;8.316;2023-12-28T18:47:49;6.28;;;1.80;;
6185;SDS011;3126;52.738;8.316;2023-12-28T18:52:50;7.38;;;2.05;;
6185;SDS011;3126;52.738;8.316;2023-12-28T18:57:51;13.80;;;2.38;;
6185;SDS011;3126;52.738;8.316;2023-12-28T19:02:52;8.15;;;2.95;;
6185;SDS011;3126;52.738;8.316;2023-12-28T19:07:53;9.07;;;2.03;;
6185;SDS011;3126;52.738;8.316;2023-12-28T19:12:54;11.13;;;2.03;;
6185;SDS011;3126;52.738;8.316;2023-12-28T19:17:55;9.00;;;2.15;;
6185;SDS011;3126;52.738;8.316;2023-12-28T19:22:56;7.82;;;2.08;;
6185;SDS011;3126;52.738;8.316;2023-12-28T19:27:57;8.43;;;2.40;;
6185;SDS011;3126;52.738;8.316;2023-12-28T19:32:58;6.25;;;2.45;;
6185;SDS011;3126;52.738;8.316;2023-12-28T19:37:59;6.55;;;2.28;;
6185;SDS011;3126;52.738;8.316;2023-12-28T19:43:00;11.25;;;2.58;;
6185;SDS011;3126;52.738;8.316;2023-12-28T19:48:01;5.68;;;2.15;;
6185;SDS011;3126;52.738;8.316;2023-12-28T19:53:02;6.82;;;2.10;;
6185;SDS011;3126;52.738;8.316;2023-12-28T19:58:04;6.50;;;2.08;;
6185;SDS011;3126;52.738;8.316;2023-12-28T20:03:05;5.20;;;2.45;;
6185;SDS011;3126;52.738;8.316;2023-12-28T20:08:07;4.57;;;1.77;;
6185;SDS011;3126;52.738;8.316;2023-12-28T20:13:07;8.15;;;1.63;;
6185;SDS011;3126;52.738;8.316;2023-12-28T20:18:08;8.50;;;2.70;;
6185;SDS011;3126;52.738;8.316;2023-12-28T20:23:09;10.38;;;2.38;;
6185;SDS011;3126;52.738;8.316;2023-12-28T20:28:10;8.50;;;2.10;;
6185;SDS011;3126;52.738;8.316;2023-12-28T20:33:11;8.20;;;2.17;;
6185;SDS011;3126;52.738;8.316;2023-12-28T20:38:12;7.97;;;2.13;;
6185;SDS011;3126;52.738;8.316;2023-12-28T20:43:13;8.20;;;2.08;;
6185;SDS011;3126;52.738;8.316;2023-12-28T20:48:14;8.07;;;1.80;;
6185;SDS011;3126;52.738;8.316;2023-12-28T20:53:15;6.82;;;1.77;;
6185;SDS011;3126;52.738;8.316;2023-12-28T20:58:16;8.25;;;2.75;;
6185;SDS011;3126;52.738;8.316;2023-12-28T21:03:17;8.90;;;2.05;;
6185;SDS011;3126;52.738;8.316;2023-12-28T21:08:18;10.85;;;2.45;;
6185;SDS011;3126;52.738;8.316;2023-12-28T21:13:19;8.48;;;2.35;;
6185;SDS011;3126;52.738;8.316;2023-12-28T21:18:20;4.90;;;1.83;;
6185;SDS011;3126;52.738;8.316;2023-12-28T21:23:21;6.43;;;1.95;;
6185;SDS011;3126;52.738;8.316;2023-12-28T21:28:22;5.95;;;2.10;;
6185;SDS011;3126;52.738;8.316;2023-12-28T21:33:23;8.07;;;2.35;;
6185;SDS011;3126;52.738;8.316;2023-12-28T21:38:24;6.15;;;1.58;;
6185;SDS011;3126;52.738;8.316;2023-12-28T21:43:27;6.57;;;1.88;;
6185;SDS011;3126;52.738;8.316;2023-12-28T21:48:28;8.52;;;1.98;;
6185;SDS011;3126;52.738;8.316;2023-12-28T21:53:29;6.00;;;2.22;;
6185;SDS011;3126;52.738;8.316;2023-12-28T21:58:30;7.43;;;2.10;;
6185;SDS011;3126;52.738;8.316;2023-12-28T22:03:31;7.82;;;1.92;;
6185;SDS011;3126;52.738;8.316;2023-12-28T22:08:32;4.88;;;1.63;;
6185;SDS011;3126;52.738;8.316;2023-12-28T22:13:34;5.35;;;1.70;;
6185;SDS011;3126;52.738;8.316;2023-12-28T22:18:35;8.40;;;2.10;;
6185;SDS011;3126;52.738;8.316;2023-12-28T22:23:36;6.57;;;1.95;;
6185;SDS011;3126;52.738;8.316;2023-12-28T22:28:37;5.90;;;1.83;;
6185;SDS011;3126;52.738;8.316;2023-12-28T22:33:38;5.53;;;1.92;;
6185;SDS011;3126;52.738;8.316;2023-12-28T22:38:39;10.13;;;2.10;;
6185;SDS011;3126;52.738;8.316;2023-12-28T22:43:40;4.28;;;1.80;;
6185;SDS011;3126;52.738;8.316;2023-12-28T22:48:42;6.70;;;1.70;;
6185;SDS011;3126;52.738;8.316;2023-12-28T22:53:43;7.38;;;1.77;;
6185;SDS011;3126;52.738;8.316;2023-12-28T22:58:44;4.05;;;1.50;;
6185;SDS011;3126;52.738;8.316;2023-12-28T23:03:45;8.02;;;1.73;;
6185;SDS011;3126;52.738;8.316;2023-12-28T23:08:46;6.07;;;2.03;;
6185;SDS011;3126;52.738;8.316;2023-12-28T23:13:46;6.75;;;2.40;;
6185;SDS011;3126;52.738;8.316;2023-12-28T23:18:47;6.68;;;1.75;;
6185;SDS011;3126;52.738;8.316;2023-12-28T23:23:48;5.75;;;1.98;;
6185;SDS011;3126;52.738;8.316;2023-12-28T23:28:49;5.03;;;1.92;;
6185;SDS011;3126;52.738;8.316;2023-12-28T23:33:51;5.50;;;2.13;;
6185;SDS011;3126;52.738;8.316;2023-12-28T23:38:52;5.45;;;1.92;;
6185;SDS011;3126;52.738;8.316;2023-12-28T23:43:53;5.10;;;1.80;;
6185;SDS011;3126;52.738;8.316;2023-12-28T23:48:54;4.75;;;1.88;;
6185;SDS011;3126;52.738;8.316;2023-12-28T23:53:55;8.18;;;2.00;;
6185;SDS011;3126;52.738;8.316;2023-12-28T23:58:56;6.53;;;1.65;;
